sensor_id;sensor_type;location;lat;lon;timestamp;P1;durP1;ratioP1;P2;durP2;ratioP2
13012;SDS011;22580;57.670;12.006;2022-08-11T00:00:09;0.40;;;0.40;;
13012;SDS011;22580;57.670;12.006;2022-08-11T00:02:38;0.30;;;0.30;;
13012;SDS011;22580;57.670;12.006;2022-08-11T00:05:08;0.20;;;0.20;;
13012;SDS011;22580;57.670;12.006;2022-08-11T00:07:41;0.40;;;0.40;;
13012;SDS011;22580;57.670;12.006;2022-08-11T00:10:10;0.17;;;0.17;;
13012;SDS011;22580;57.670;12.006;2022-08-11T00:12:38;0.30;;;0.30;;
13012;SDS011;22580;57.670;12.006;2022-08-11T00:15:09;0.40;;;0.40;;
13012;SDS011;22580;57.670;12.006;2022-08-11T00:17:36;0.22;;;0.22;;
13012;SDS011;22580;57.670;12.006;2022-08-11T00:20:05;0.30;;;0.30;;
13012;SDS011;22580;57.670;12.006;2022-08-11T00:22:35;0.20;;;0.20;;
13012;SDS011;22580;57.670;12.006;2022-08-11T00:25:09;0.28;;;0.28;;
13012;SDS011;22580;57.670;12.006;2022-08-11T00:27:37;0.40;;;0.40;;
13012;SDS011;22580;57.670;12.006;2022-08-11T00:30:06;0.75;;;0.30;;
13012;SDS011;22580;57.670;12.006;2022-08-11T00:32:36;0.70;;;0.35;;
13012;SDS011;22580;57.670;12.006;2022-08-11T00:35:06;0.25;;;0.25;;
13012;SDS011;22580;57.670;12.006;2022-08-11T00:37:36;0.45;;;0.20;;
13012;SDS011;22580;57.670;12.006;2022-08-11T00:40:04;0.30;;;0.30;;
13012;SDS011;22580;57.670;12.006;2022-08-11T00:42:42;0.20;;;0.20;;
13012;SDS011;22580;57.670;12.006;2022-08-11T00:45:17;0.20;;;0.20;;
13012;SDS011;22580;57.670;12.006;2022-08-11T00:47:54;0.52;;;0.20;;
13012;SDS011;22580;57.670;12.006;2022-08-11T00:50:40;0.20;;;0.20;;
13012;SDS011;22580;57.670;12.006;2022-08-11T00:59:47;0.20;;;0.20;;
13012;SDS011;22580;57.670;12.006;2022-08-11T01:02:40;0.30;;;0.30;;
13012;SDS011;22580;57.670;12.006;2022-08-11T01:05:27;0.20;;;0.20;;
13012;SDS011;22580;57.670;12.006;2022-08-11T01:08:18;0.28;;;0.28;;
13012;SDS011;22580;57.670;12.006;2022-08-11T01:11:11;0.20;;;0.20;;
13012;SDS011;22580;57.670;12.006;2022-08-11T01:20:10;0.20;;;0.20;;
13012;SDS011;22580;57.670;12.006;2022-08-11T01:23:03;0.20;;;0.20;;
13012;SDS011;22580;57.670;12.006;2022-08-11T01:26:11;0.20;;;0.20;;
13012;SDS011;22580;57.670;12.006;2022-08-11T01:29:20;0.10;;;0.10;;
13012;SDS011;22580;57.670;12.006;2022-08-11T01:32:13;0.20;;;0.20;;
13012;SDS011;22580;57.670;12.006;2022-08-11T01:41:21;0.20;;;0.20;;
13012;SDS011;22580;57.670;12.006;2022-08-11T01:44:23;0.20;;;0.20;;
13012;SDS011;22580;57.670;12.006;2022-08-11T01:47:24;0.20;;;0.20;;
13012;SDS011;22580;57.670;12.006;2022-08-11T01:50:17;0.20;;;0.20;;
13012;SDS011;22580;57.670;12.006;2022-08-11T01:52:59;0.17;;;0.17;;
13012;SDS011;22580;57.670;12.006;2022-08-11T01:55:33;0.20;;;0.20;;
13012;SDS011;22580;57.670;12.006;2022-08-11T01:58:08;0.25;;;0.25;;
13012;SDS011;22580;57.670;12.006;2022-08-11T02:00:46;0.20;;;0.20;;
13012;SDS011;22580;57.670;12.006;2022-08-11T02:03:23;0.30;;;0.30;;
13012;SDS011;22580;57.670;12.006;2022-08-11T02:06:03;0.30;;;0.30;;
13012;SDS011;22580;57.670;12.006;2022-08-11T02:08:54;0.20;;;0.20;;
13012;SDS011;22580;57.670;12.006;2022-08-11T02:11:29;0.32;;;0.32;;
13012;SDS011;22580;57.670;12.006;2022-08-11T02:13:59;0.20;;;0.20;;
13012;SDS011;22580;57.670;12.006;2022-08-11T02:16:39;0.28;;;0.28;;
13012;SDS011;22580;57.670;12.006;2022-08-11T02:19:19;0.10;;;0.10;;
13012;SDS011;22580;57.670;12.006;2022-08-11T02:22:15;0.35;;;0.20;;
13012;SDS011;22580;57.670;12.006;2022-08-11T02:25:08;0.20;;;0.20;;
13012;SDS011;22580;57.670;12.006;2022-08-11T02:27:44;0.10;;;0.10;;
13012;SDS011;22580;57.670;12.006;2022-08-11T02:30:15;0.15;;;0.15;;
13012;SDS011;22580;57.670;12.006;2022-08-11T02:32:46;0.30;;;0.30;;
13012;SDS011;22580;57.670;12.006;2022-08-11T02:35:37;0.30;;;0.20;;
13012;SDS011;22580;57.670;12.006;2022-08-11T02:38:15;0.10;;;0.10;;
13012;SDS011;22580;57.670;12.006;2022-08-11T02:40:52;0.20;;;0.20;;
13012;SDS011;22580;57.670;12.006;2022-08-11T02:43:27;0.20;;;0.20;;
13012;SDS011;22580;57.670;12.006;2022-08-11T02:46:14;0.30;;;0.30;;
13012;SDS011;22580;57.670;12.006;2022-08-11T02:48:51;0.10;;;0.10;;
13012;SDS011;22580;57.670;12.006;2022-08-11T02:51:43;0.10;;;0.10;;
13012;SDS011;22580;57.670;12.006;2022-08-11T02:54:22;0.30;;;0.30;;
13012;SDS011;22580;57.670;12.006;2022-08-11T02:56:57;0.15;;;0.15;;
13012;SDS011;22580;57.670;12.006;2022-08-11T02:59:30;0.20;;;0.20;;
13012;SDS011;22580;57.670;12.006;2022-08-11T03:05:26;0.20;;;0.20;;
13012;SDS011;22580;57.670;12.006;2022-08-11T03:08:14;0.22;;;0.22;;
13012;SDS011;22580;57.670;12.006;2022-08-11T03:10:53;0.20;;;0.20;;
13012;SDS011;22580;57.670;12.006;2022-08-11T03:13:52;0.20;;;0.20;;
13012;SDS011;22580;57.670;12.006;2022-08-11T03:16:50;0.30;;;0.30;;
13012;SDS011;22580;57.670;12.006;2022-08-11T03:19:24;0.10;;;0.10;;
13012;SDS011;22580;57.670;12.006;2022-08-11T03:22:01;0.15;;;0.15;;
13012;SDS011;22580;57.670;12.006;2022-08-11T03:24:38;0.20;;;0.20;;
13012;SDS011;22580;57.670;12.006;2022-08-11T03:27:19;0.20;;;0.20;;
13012;SDS011;22580;57.670;12.006;2022-08-11T03:30:00;0.45;;;0.30;;
13012;SDS011;22580;57.670;12.006;2022-08-11T03:32:31;0.38;;;0.38;;
13012;SDS011;22580;57.670;12.006;2022-08-11T03:35:03;1.45;;;0.43;;
13012;SDS011;22580;57.670;12.006;2022-08-11T03:37:40;0.40;;;0.40;;
13012;SDS011;22580;57.670;12.006;2022-08-11T03:40:21;0.40;;;0.40;;
13012;SDS011;22580;57.670;12.006;2022-08-11T03:43:39;0.40;;;0.40;;
13012;SDS011;22580;57.670;12.006;2022-08-11T03:46:24;0.50;;;0.50;;
13012;SDS011;22580;57.670;12.006;2022-08-11T03:49:18;0.30;;;0.30;;
13012;SDS011;22580;57.670;12.006;2022-08-11T03:51:58;0.30;;;0.30;;
13012;SDS011;22580;57.670;12.006;2022-08-11T03:54:42;0.50;;;0.50;;
13012;SDS011;22580;57.670;12.006;2022-08-11T03:57:25;0.20;;;0.20;;
13012;SDS011;22580;57.670;12.006;2022-08-11T04:00:18;0.20;;;0.20;;
13012;SDS011;22580;57.670;12.006;2022-08-11T04:06:19;0.20;;;0.20;;
13012;SDS011;22580;57.670;12.006;2022-08-11T04:15:13;0.30;;;0.30;;
13012;SDS011;22580;57.670;12.006;2022-08-11T04:18:18;0.20;;;0.20;;
13012;SDS011;22580;57.670;12.006;2022-08-11T04:24:26;0.10;;;0.10;;
13012;SDS011;22580;57.670;12.006;2022-08-11T04:30:10;0.10;;;0.10;;
13012;SDS011;22580;57.670;12.006;2022-08-11T04:32:56;0.10;;;0.10;;
13012;SDS011;22580;57.670;12.006;2022-08-11T04:35:38;0.10;;;0.10;;
13012;SDS011;22580;57.670;12.006;2022-08-11T04:38:15;0.10;;;0.10;;
13012;SDS011;22580;57.670;12.006;2022-08-11T04:41:17;0.20;;;0.20;;
13012;SDS011;22580;57.670;12.006;2022-08-11T04:47:39;0.20;;;0.20;;
13012;SDS011;22580;57.670;12.006;2022-08-11T04:50:36;0.20;;;0.20;;
13012;SDS011;22580;57.670;12.006;2022-08-11T04:53:41;0.20;;;0.20;;
13012;SDS011;22580;57.670;12.006;2022-08-11T04:56:29;0.20;;;0.20;;
13012;SDS011;22580;57.670;12.006;2022-08-11T04:59:39;0.10;;;0.10;;
13012;SDS011;22580;57.670;12.006;2022-08-11T05:02:43;0.10;;;0.10;;
13012;SDS011;22580;57.670;12.006;2022-08-11T05:05:52;0.30;;;0.30;;
13012;SDS011;22580;57.670;12.006;2022-08-11T05:11:36;0.20;;;0.20;;
13012;SDS011;22580;57.670;12.006;2022-08-11T05:14:31;0.20;;;0.20;;
13012;SDS011;22580;57.670;12.006;2022-08-11T05:17:22;0.20;;;0.20;;
13012;SDS011;22580;57.670;12.006;2022-08-11T05:20:13;0.10;;;0.10;;
13012;SDS011;22580;57.670;12.006;2022-08-11T05:23:00;0.10;;;0.10;;
13012;SDS011;22580;57.670;12.006;2022-08-11T05:25:47;0.10;;;0.10;;
13012;SDS011;22580;57.670;12.006;2022-08-11T05:28:41;0.10;;;0.10;;
13012;SDS011;22580;57.670;12.006;2022-08-11T05:31:34;0.13;;;0.13;;
13012;SDS011;22580;57.670;12.006;2022-08-11T05:34:21;0.20;;;0.20;;
13012;SDS011;22580;57.670;12.006;2022-08-11T05:37:08;0.20;;;0.20;;
13012;SDS011;22580;57.670;12.006;2022-08-11T05:39:43;0.20;;;0.10;;
13012;SDS011;22580;57.670;12.006;2022-08-11T05:42:31;0.10;;;0.10;;
13012;SDS011;22580;57.670;12.006;2022-08-11T05:45:18;0.20;;;0.20;;
13012;SDS011;22580;57.670;12.006;2022-08-11T05:48:03;0.20;;;0.20;;
13012;SDS011;22580;57.670;12.006;2022-08-11T05:50:51;0.25;;;0.25;;
13012;SDS011;22580;57.670;12.006;2022-08-11T05:53:44;0.30;;;0.30;;
13012;SDS011;22580;57.670;12.006;2022-08-11T05:56:30;0.30;;;0.30;;
13012;SDS011;22580;57.670;12.006;2022-08-11T05:58:59;0.40;;;0.40;;
13012;SDS011;22580;57.670;12.006;2022-08-11T06:01:29;0.20;;;0.20;;
13012;SDS011;22580;57.670;12.006;2022-08-11T06:03:59;0.30;;;0.30;;
13012;SDS011;22580;57.670;12.006;2022-08-11T06:06:45;0.40;;;0.40;;
13012;SDS011;22580;57.670;12.006;2022-08-11T06:09:19;0.50;;;0.50;;
13012;SDS011;22580;57.670;12.006;2022-08-11T06:11:50;0.40;;;0.40;;
13012;SDS011;22580;57.670;12.006;2022-08-11T06:14:18;0.50;;;0.50;;
13012;SDS011;22580;57.670;12.006;2022-08-11T06:16:49;0.40;;;0.40;;
13012;SDS011;22580;57.670;12.006;2022-08-11T06:19:20;0.40;;;0.40;;
13012;SDS011;22580;57.670;12.006;2022-08-11T06:21:48;0.40;;;0.40;;
13012;SDS011;22580;57.670;12.006;2022-08-11T06:24:17;0.40;;;0.40;;
13012;SDS011;22580;57.670;12.006;2022-08-11T06:26:48;0.65;;;0.65;;
13012;SDS011;22580;57.670;12.006;2022-08-11T06:29:16;0.68;;;0.68;;
13012;SDS011;22580;57.670;12.006;2022-08-11T06:31:50;0.68;;;0.68;;
13012;SDS011;22580;57.670;12.006;2022-08-11T06:34:25;0.60;;;0.60;;
13012;SDS011;22580;57.670;12.006;2022-08-11T06:37:02;0.68;;;0.60;;
13012;SDS011;22580;57.670;12.006;2022-08-11T06:39:49;0.70;;;0.70;;
13012;SDS011;22580;57.670;12.006;2022-08-11T06:42:33;0.40;;;0.40;;
13012;SDS011;22580;57.670;12.006;2022-08-11T06:45:10;0.60;;;0.60;;
13012;SDS011;22580;57.670;12.006;2022-08-11T06:47:51;0.70;;;0.70;;
13012;SDS011;22580;57.670;12.006;2022-08-11T06:50:19;0.50;;;0.50;;
13012;SDS011;22580;57.670;12.006;2022-08-11T06:53:02;0.60;;;0.60;;
13012;SDS011;22580;57.670;12.006;2022-08-11T06:55:31;0.40;;;0.40;;
13012;SDS011;22580;57.670;12.006;2022-08-11T06:58:17;0.60;;;0.60;;
13012;SDS011;22580;57.670;12.006;2022-08-11T07:01:04;0.57;;;0.57;;
13012;SDS011;22580;57.670;12.006;2022-08-11T07:03:39;0.30;;;0.30;;
13012;SDS011;22580;57.670;12.006;2022-08-11T07:06:14;0.82;;;0.82;;
13012;SDS011;22580;57.670;12.006;2022-08-11T07:08:55;0.52;;;0.52;;
13012;SDS011;22580;57.670;12.006;2022-08-11T07:15:27;0.60;;;0.60;;
13012;SDS011;22580;57.670;12.006;2022-08-11T07:18:10;0.68;;;0.68;;
13012;SDS011;22580;57.670;12.006;2022-08-11T07:21:08;0.40;;;0.40;;
13012;SDS011;22580;57.670;12.006;2022-08-11T07:23:55;0.50;;;0.50;;
13012;SDS011;22580;57.670;12.006;2022-08-11T07:26:42;0.40;;;0.40;;
13012;SDS011;22580;57.670;12.006;2022-08-11T07:29:31;0.82;;;0.82;;
13012;SDS011;22580;57.670;12.006;2022-08-11T07:32:01;0.60;;;0.60;;
13012;SDS011;22580;57.670;12.006;2022-08-11T07:34:39;0.40;;;0.40;;
13012;SDS011;22580;57.670;12.006;2022-08-11T07:37:14;0.30;;;0.30;;
13012;SDS011;22580;57.670;12.006;2022-08-11T07:39:44;0.30;;;0.30;;
13012;SDS011;22580;57.670;12.006;2022-08-11T07:42:13;0.40;;;0.40;;
13012;SDS011;22580;57.670;12.006;2022-08-11T07:44:41;0.70;;;0.70;;
13012;SDS011;22580;57.670;12.006;2022-08-11T07:47:25;0.70;;;0.70;;
13012;SDS011;22580;57.670;12.006;2022-08-11T07:50:10;0.93;;;0.90;;
13012;SDS011;22580;57.670;12.006;2022-08-11T07:52:57;0.70;;;0.70;;
13012;SDS011;22580;57.670;12.006;2022-08-11T07:55:25;0.73;;;0.73;;
13012;SDS011;22580;57.670;12.006;2022-08-11T07:57:54;0.50;;;0.50;;
13012;SDS011;22580;57.670;12.006;2022-08-11T08:00:42;0.70;;;0.70;;
13012;SDS011;22580;57.670;12.006;2022-08-11T08:03:28;0.60;;;0.60;;
13012;SDS011;22580;57.670;12.006;2022-08-11T08:06:13;0.82;;;0.80;;
13012;SDS011;22580;57.670;12.006;2022-08-11T08:09:00;0.55;;;0.55;;
13012;SDS011;22580;57.670;12.006;2022-08-11T08:11:45;0.40;;;0.40;;
13012;SDS011;22580;57.670;12.006;2022-08-11T08:14:30;0.60;;;0.60;;
13012;SDS011;22580;57.670;12.006;2022-08-11T08:17:15;0.50;;;0.50;;
13012;SDS011;22580;57.670;12.006;2022-08-11T08:20:00;0.55;;;0.50;;
13012;SDS011;22580;57.670;12.006;2022-08-11T08:22:29;0.60;;;0.60;;
13012;SDS011;22580;57.670;12.006;2022-08-11T08:24:57;0.55;;;0.55;;
13012;SDS011;22580;57.670;12.006;2022-08-11T08:27:25;0.60;;;0.60;;
13012;SDS011;22580;57.670;12.006;2022-08-11T08:29:52;0.55;;;0.55;;
13012;SDS011;22580;57.670;12.006;2022-08-11T08:32:37;0.40;;;0.40;;
13012;SDS011;22580;57.670;12.006;2022-08-11T08:35:05;0.70;;;0.70;;
13012;SDS011;22580;57.670;12.006;2022-08-11T08:37:36;0.50;;;0.50;;
13012;SDS011;22580;57.670;12.006;2022-08-11T08:40:06;0.52;;;0.52;;
13012;SDS011;22580;57.670;12.006;2022-08-11T08:42:36;0.63;;;0.63;;
13012;SDS011;22580;57.670;12.006;2022-08-11T08:45:07;0.90;;;0.90;;
13012;SDS011;22580;57.670;12.006;2022-08-11T08:47:38;0.80;;;0.80;;
13012;SDS011;22580;57.670;12.006;2022-08-11T08:50:09;0.93;;;0.85;;
13012;SDS011;22580;57.670;12.006;2022-08-11T08:52:38;0.65;;;0.65;;
13012;SDS011;22580;57.670;12.006;2022-08-11T08:55:17;0.60;;;0.60;;
13012;SDS011;22580;57.670;12.006;2022-08-11T08:57:47;0.65;;;0.65;;
13012;SDS011;22580;57.670;12.006;2022-08-11T09:00:16;0.40;;;0.40;;
13012;SDS011;22580;57.670;12.006;2022-08-11T09:02:44;0.60;;;0.60;;
13012;SDS011;22580;57.670;12.006;2022-08-11T09:05:11;0.60;;;0.57;;
13012;SDS011;22580;57.670;12.006;2022-08-11T09:07:38;0.60;;;0.60;;
13012;SDS011;22580;57.670;12.006;2022-08-11T09:10:07;0.90;;;0.90;;
13012;SDS011;22580;57.670;12.006;2022-08-11T09:12:39;0.90;;;0.90;;
13012;SDS011;22580;57.670;12.006;2022-08-11T09:15:07;0.95;;;0.95;;
13012;SDS011;22580;57.670;12.006;2022-08-11T09:17:37;1.35;;;0.90;;
13012;SDS011;22580;57.670;12.006;2022-08-11T09:20:06;0.90;;;0.90;;
13012;SDS011;22580;57.670;12.006;2022-08-11T09:22:39;0.70;;;0.70;;
13012;SDS011;22580;57.670;12.006;2022-08-11T09:25:29;1.48;;;0.80;;
13012;SDS011;22580;57.670;12.006;2022-08-11T09:28:16;0.70;;;0.70;;
13012;SDS011;22580;57.670;12.006;2022-08-11T09:30:46;0.70;;;0.70;;
13012;SDS011;22580;57.670;12.006;2022-08-11T09:33:17;0.60;;;0.60;;
13012;SDS011;22580;57.670;12.006;2022-08-11T09:35:45;0.70;;;0.70;;
13012;SDS011;22580;57.670;12.006;2022-08-11T09:38:14;0.55;;;0.55;;
13012;SDS011;22580;57.670;12.006;2022-08-11T09:41:00;0.90;;;0.90;;
13012;SDS011;22580;57.670;12.006;2022-08-11T09:43:31;0.80;;;0.80;;
13012;SDS011;22580;57.670;12.006;2022-08-11T09:46:20;0.75;;;0.60;;
13012;SDS011;22580;57.670;12.006;2022-08-11T09:48:50;0.77;;;0.77;;
13012;SDS011;22580;57.670;12.006;2022-08-11T09:51:21;0.60;;;0.60;;
13012;SDS011;22580;57.670;12.006;2022-08-11T09:53:49;0.95;;;0.85;;
13012;SDS011;22580;57.670;12.006;2022-08-11T09:56:16;0.60;;;0.60;;
13012;SDS011;22580;57.670;12.006;2022-08-11T09:59:03;0.60;;;0.60;;
13012;SDS011;22580;57.670;12.006;2022-08-11T10:01:32;0.60;;;0.60;;
13012;SDS011;22580;57.670;12.006;2022-08-11T10:04:07;0.60;;;0.60;;
13012;SDS011;22580;57.670;12.006;2022-08-11T10:06:40;1.00;;;0.85;;
13012;SDS011;22580;57.670;12.006;2022-08-11T10:09:27;0.82;;;0.77;;
13012;SDS011;22580;57.670;12.006;2022-08-11T10:11:59;0.73;;;0.73;;
13012;SDS011;22580;57.670;12.006;2022-08-11T10:14:29;0.68;;;0.68;;
13012;SDS011;22580;57.670;12.006;2022-08-11T10:17:16;0.60;;;0.60;;
13012;SDS011;22580;57.670;12.006;2022-08-11T10:19:47;0.77;;;0.77;;
13012;SDS011;22580;57.670;12.006;2022-08-11T10:22:16;0.70;;;0.70;;
13012;SDS011;22580;57.670;12.006;2022-08-11T10:25:02;0.55;;;0.55;;
13012;SDS011;22580;57.670;12.006;2022-08-11T10:27:47;0.60;;;0.60;;
13012;SDS011;22580;57.670;12.006;2022-08-11T10:30:20;0.60;;;0.60;;
13012;SDS011;22580;57.670;12.006;2022-08-11T10:33:04;1.75;;;0.98;;
13012;SDS011;22580;57.670;12.006;2022-08-11T10:35:48;0.80;;;0.80;;
13012;SDS011;22580;57.670;12.006;2022-08-11T10:38:15;2.08;;;1.10;;
13012;SDS011;22580;57.670;12.006;2022-08-11T10:40:44;1.45;;;1.15;;
13012;SDS011;22580;57.670;12.006;2022-08-11T10:43:32;1.08;;;1.08;;
13012;SDS011;22580;57.670;12.006;2022-08-11T10:45:59;0.85;;;0.85;;
13012;SDS011;22580;57.670;12.006;2022-08-11T10:48:43;0.70;;;0.70;;
13012;SDS011;22580;57.670;12.006;2022-08-11T10:51:10;0.43;;;0.43;;
13012;SDS011;22580;57.670;12.006;2022-08-11T10:53:38;0.40;;;0.40;;
13012;SDS011;22580;57.670;12.006;2022-08-11T10:56:24;0.52;;;0.52;;
13012;SDS011;22580;57.670;12.006;2022-08-11T10:59:12;0.68;;;0.68;;
13012;SDS011;22580;57.670;12.006;2022-08-11T11:01:42;0.60;;;0.60;;
13012;SDS011;22580;57.670;12.006;2022-08-11T11:04:11;0.50;;;0.50;;
13012;SDS011;22580;57.670;12.006;2022-08-11T11:06:44;0.85;;;0.85;;
13012;SDS011;22580;57.670;12.006;2022-08-11T11:09:17;0.63;;;0.63;;
13012;SDS011;22580;57.670;12.006;2022-08-11T11:11:47;1.23;;;0.75;;
13012;SDS011;22580;57.670;12.006;2022-08-11T11:14:33;0.70;;;0.70;;
13012;SDS011;22580;57.670;12.006;2022-08-11T11:17:22;0.55;;;0.55;;
13012;SDS011;22580;57.670;12.006;2022-08-11T11:20:12;0.60;;;0.60;;
13012;SDS011;22580;57.670;12.006;2022-08-11T11:22:42;0.70;;;0.70;;
13012;SDS011;22580;57.670;12.006;2022-08-11T11:25:21;0.60;;;0.60;;
13012;SDS011;22580;57.670;12.006;2022-08-11T11:27:58;0.50;;;0.50;;
13012;SDS011;22580;57.670;12.006;2022-08-11T11:30:36;0.70;;;0.70;;
13012;SDS011;22580;57.670;12.006;2022-08-11T11:33:15;0.50;;;0.50;;
13012;SDS011;22580;57.670;12.006;2022-08-11T11:35:54;0.73;;;0.73;;
13012;SDS011;22580;57.670;12.006;2022-08-11T11:38:34;0.60;;;0.60;;
13012;SDS011;22580;57.670;12.006;2022-08-11T11:41:01;0.80;;;0.80;;
13012;SDS011;22580;57.670;12.006;2022-08-11T11:43:54;0.70;;;0.70;;
13012;SDS011;22580;57.670;12.006;2022-08-11T11:46:23;0.40;;;0.40;;
13012;SDS011;22580;57.670;12.006;2022-08-11T11:48:54;0.60;;;0.60;;
13012;SDS011;22580;57.670;12.006;2022-08-11T11:51:23;0.60;;;0.60;;
13012;SDS011;22580;57.670;12.006;2022-08-11T11:53:51;0.80;;;0.80;;
13012;SDS011;22580;57.670;12.006;2022-08-11T11:56:18;0.50;;;0.50;;
13012;SDS011;22580;57.670;12.006;2022-08-11T11:58:49;0.60;;;0.60;;
13012;SDS011;22580;57.670;12.006;2022-08-11T12:01:35;0.50;;;0.50;;
13012;SDS011;22580;57.670;12.006;2022-08-11T12:04:03;0.65;;;0.65;;
13012;SDS011;22580;57.670;12.006;2022-08-11T12:06:31;0.65;;;0.50;;
13012;SDS011;22580;57.670;12.006;2022-08-11T12:08:59;0.60;;;0.60;;
13012;SDS011;22580;57.670;12.006;2022-08-11T12:11:27;0.70;;;0.70;;
13012;SDS011;22580;57.670;12.006;2022-08-11T12:14:14;0.63;;;0.63;;
13012;SDS011;22580;57.670;12.006;2022-08-11T12:16:44;0.47;;;0.47;;
13012;SDS011;22580;57.670;12.006;2022-08-11T12:19:15;0.60;;;0.60;;
13012;SDS011;22580;57.670;12.006;2022-08-11T12:21:45;0.60;;;0.60;;
13012;SDS011;22580;57.670;12.006;2022-08-11T12:24:30;0.50;;;0.50;;
13012;SDS011;22580;57.670;12.006;2022-08-11T12:27:16;0.43;;;0.43;;
13012;SDS011;22580;57.670;12.006;2022-08-11T12:29:46;0.50;;;0.50;;
13012;SDS011;22580;57.670;12.006;2022-08-11T12:32:17;0.70;;;0.70;;
13012;SDS011;22580;57.670;12.006;2022-08-11T12:34:47;0.80;;;0.80;;
13012;SDS011;22580;57.670;12.006;2022-08-11T12:37:15;0.70;;;0.70;;
13012;SDS011;22580;57.670;12.006;2022-08-11T12:39:48;0.60;;;0.60;;
13012;SDS011;22580;57.670;12.006;2022-08-11T12:42:36;0.60;;;0.60;;
13012;SDS011;22580;57.670;12.006;2022-08-11T12:45:34;0.50;;;0.50;;
13012;SDS011;22580;57.670;12.006;2022-08-11T12:48:06;0.38;;;0.38;;
13012;SDS011;22580;57.670;12.006;2022-08-11T12:50:57;0.40;;;0.40;;
13012;SDS011;22580;57.670;12.006;2022-08-11T12:53:48;0.50;;;0.50;;
13012;SDS011;22580;57.670;12.006;2022-08-11T12:56:18;0.40;;;0.40;;
13012;SDS011;22580;57.670;12.006;2022-08-11T12:59:05;0.30;;;0.30;;
13012;SDS011;22580;57.670;12.006;2022-08-11T13:01:50;0.50;;;0.50;;
13012;SDS011;22580;57.670;12.006;2022-08-11T13:04:36;0.60;;;0.47;;
13012;SDS011;22580;57.670;12.006;2022-08-11T13:10:05;0.40;;;0.40;;
13012;SDS011;22580;57.670;12.006;2022-08-11T13:12:34;1.48;;;0.40;;
13012;SDS011;22580;57.670;12.006;2022-08-11T13:15:15;0.30;;;0.30;;
13012;SDS011;22580;57.670;12.006;2022-08-11T13:17:44;0.30;;;0.30;;
13012;SDS011;22580;57.670;12.006;2022-08-11T13:20:13;0.40;;;0.40;;
13012;SDS011;22580;57.670;12.006;2022-08-11T13:22:46;0.30;;;0.30;;
13012;SDS011;22580;57.670;12.006;2022-08-11T13:25:15;0.40;;;0.40;;
13012;SDS011;22580;57.670;12.006;2022-08-11T13:27:44;0.25;;;0.25;;
13012;SDS011;22580;57.670;12.006;2022-08-11T13:30:16;0.20;;;0.20;;
13012;SDS011;22580;57.670;12.006;2022-08-11T13:33:01;0.30;;;0.30;;
13012;SDS011;22580;57.670;12.006;2022-08-11T13:35:30;0.30;;;0.30;;
13012;SDS011;22580;57.670;12.006;2022-08-11T13:38:00;0.30;;;0.30;;
13012;SDS011;22580;57.670;12.006;2022-08-11T13:40:28;0.45;;;0.45;;
13012;SDS011;22580;57.670;12.006;2022-08-11T13:42:56;0.47;;;0.47;;
13012;SDS011;22580;57.670;12.006;2022-08-11T13:45:24;0.30;;;0.30;;
13012;SDS011;22580;57.670;12.006;2022-08-11T13:47:54;0.40;;;0.40;;
13012;SDS011;22580;57.670;12.006;2022-08-11T13:50:23;0.38;;;0.38;;
13012;SDS011;22580;57.670;12.006;2022-08-11T13:53:13;0.20;;;0.20;;
13012;SDS011;22580;57.670;12.006;2022-08-11T13:55:42;0.30;;;0.30;;
13012;SDS011;22580;57.670;12.006;2022-08-11T13:58:10;0.45;;;0.30;;
13012;SDS011;22580;57.670;12.006;2022-08-11T14:00:38;0.40;;;0.40;;
13012;SDS011;22580;57.670;12.006;2022-08-11T14:03:08;0.40;;;0.40;;
13012;SDS011;22580;57.670;12.006;2022-08-11T14:05:37;0.43;;;0.43;;
13012;SDS011;22580;57.670;12.006;2022-08-11T14:08:15;0.40;;;0.40;;
13012;SDS011;22580;57.670;12.006;2022-08-11T14:10:47;0.47;;;0.47;;
13012;SDS011;22580;57.670;12.006;2022-08-11T14:13:36;0.40;;;0.40;;
13012;SDS011;22580;57.670;12.006;2022-08-11T14:16:05;0.40;;;0.40;;
13012;SDS011;22580;57.670;12.006;2022-08-11T14:18:37;0.70;;;0.70;;
13012;SDS011;22580;57.670;12.006;2022-08-11T14:21:08;0.43;;;0.43;;
13012;SDS011;22580;57.670;12.006;2022-08-11T14:23:58;0.47;;;0.47;;
13012;SDS011;22580;57.670;12.006;2022-08-11T14:26:28;0.60;;;0.60;;
13012;SDS011;22580;57.670;12.006;2022-08-11T14:29:04;0.40;;;0.40;;
13012;SDS011;22580;57.670;12.006;2022-08-11T14:31:35;0.35;;;0.35;;
13012;SDS011;22580;57.670;12.006;2022-08-11T14:34:04;0.35;;;0.35;;
13012;SDS011;22580;57.670;12.006;2022-08-11T14:36:33;0.43;;;0.43;;
13012;SDS011;22580;57.670;12.006;2022-08-11T14:39:04;0.28;;;0.28;;
13012;SDS011;22580;57.670;12.006;2022-08-11T14:41:36;0.30;;;0.30;;
13012;SDS011;22580;57.670;12.006;2022-08-11T14:44:22;0.70;;;0.70;;
13012;SDS011;22580;57.670;12.006;2022-08-11T14:47:07;0.82;;;0.82;;
13012;SDS011;22580;57.670;12.006;2022-08-11T14:49:39;1.05;;;0.93;;
13012;SDS011;22580;57.670;12.006;2022-08-11T14:52:07;1.10;;;1.00;;
13012;SDS011;22580;57.670;12.006;2022-08-11T14:54:42;0.70;;;0.70;;
13012;SDS011;22580;57.670;12.006;2022-08-11T14:57:28;1.00;;;0.80;;
13012;SDS011;22580;57.670;12.006;2022-08-11T15:00:00;0.93;;;0.80;;
13012;SDS011;22580;57.670;12.006;2022-08-11T15:02:30;1.52;;;1.30;;
13012;SDS011;22580;57.670;12.006;2022-08-11T15:05:17;1.33;;;1.23;;
13012;SDS011;22580;57.670;12.006;2022-08-11T15:07:45;0.70;;;0.70;;
13012;SDS011;22580;57.670;12.006;2022-08-11T15:10:15;0.75;;;0.75;;
13012;SDS011;22580;57.670;12.006;2022-08-11T15:12:43;0.88;;;0.88;;
13012;SDS011;22580;57.670;12.006;2022-08-11T15:15:11;0.70;;;0.70;;
13012;SDS011;22580;57.670;12.006;2022-08-11T15:17:56;0.55;;;0.55;;
13012;SDS011;22580;57.670;12.006;2022-08-11T15:20:27;0.57;;;0.57;;
13012;SDS011;22580;57.670;12.006;2022-08-11T15:23:12;0.47;;;0.47;;
13012;SDS011;22580;57.670;12.006;2022-08-11T15:25:59;0.63;;;0.63;;
13012;SDS011;22580;57.670;12.006;2022-08-11T15:28:30;0.70;;;0.70;;
13012;SDS011;22580;57.670;12.006;2022-08-11T15:31:19;0.50;;;0.50;;
13012;SDS011;22580;57.670;12.006;2022-08-11T15:34:03;0.57;;;0.57;;
13012;SDS011;22580;57.670;12.006;2022-08-11T15:36:50;0.50;;;0.50;;
13012;SDS011;22580;57.670;12.006;2022-08-11T15:39:40;0.40;;;0.40;;
13012;SDS011;22580;57.670;12.006;2022-08-11T15:42:27;0.60;;;0.60;;
13012;SDS011;22580;57.670;12.006;2022-08-11T15:45:15;0.47;;;0.47;;
13012;SDS011;22580;57.670;12.006;2022-08-11T15:48:05;0.50;;;0.50;;
13012;SDS011;22580;57.670;12.006;2022-08-11T15:50:37;0.30;;;0.30;;
13012;SDS011;22580;57.670;12.006;2022-08-11T15:53:06;0.40;;;0.40;;
13012;SDS011;22580;57.670;12.006;2022-08-11T15:55:35;0.40;;;0.40;;
13012;SDS011;22580;57.670;12.006;2022-08-11T15:58:06;0.57;;;0.57;;
13012;SDS011;22580;57.670;12.006;2022-08-11T16:00:52;0.40;;;0.40;;
13012;SDS011;22580;57.670;12.006;2022-08-11T16:03:39;0.50;;;0.50;;
13012;SDS011;22580;57.670;12.006;2022-08-11T16:06:26;0.40;;;0.40;;
13012;SDS011;22580;57.670;12.006;2022-08-11T16:08:55;0.50;;;0.50;;
13012;SDS011;22580;57.670;12.006;2022-08-11T16:11:29;0.40;;;0.40;;
13012;SDS011;22580;57.670;12.006;2022-08-11T16:14:00;0.73;;;0.50;;
13012;SDS011;22580;57.670;12.006;2022-08-11T16:16:46;0.40;;;0.40;;
13012;SDS011;22580;57.670;12.006;2022-08-11T16:19:14;0.30;;;0.30;;
13012;SDS011;22580;57.670;12.006;2022-08-11T16:21:43;0.32;;;0.32;;
13012;SDS011;22580;57.670;12.006;2022-08-11T16:24:14;0.32;;;0.32;;
13012;SDS011;22580;57.670;12.006;2022-08-11T16:26:44;0.40;;;0.40;;
13012;SDS011;22580;57.670;12.006;2022-08-11T16:29:13;0.52;;;0.52;;